Time;durP1;ratioP1;P1;durP2;ratioP2;P2;SDS_P1;SDS_P2;PMS_P1;PMS_P2;Temp;Humidity;BMP_temperature;BMP_pressure;BME280_temperature;BME280_humidity;BME280_pressure;Samples;Min_cycle;Max_cycle;Signal;HPM_P1;HPM_P2
2021/09/04 00:00:00;;;;;;;7.90;4.58;;;;;;;14.15;69.49;99053.86;1733972;82;21012;-68
2021/09/04 00:02:31;;;;;;;6.42;3.75;;;;;;;14.14;69.61;99052.84;1687273;83;21535;-68
2021/09/04 00:04:57;;;;;;;11.28;4.60;;;;;;;14.11;69.96;99049.61;1715194;83;21020;-70
2021/09/04 00:07:28;;;;;;;7.28;4.60;;;;;;;14.08;70.01;99055.87;1734239;82;21606;-68
2021/09/04 00:10:00;;;;;;;6.75;4.40;;;;;;;14.06;70.31;99065.10;1744634;81;21003;-71
2021/09/04 00:12:27;;;;;;;7.87;4.62;;;;;;;14.04;70.64;99061.09;1745279;82;21039;-69
2021/09/04 00:14:57;;;;;;;17.02;4.55;;;;;;;14.04;70.90;99055.55;1745126;81;21075;-70
2021/09/04 00:17:26;;;;;;;10.88;4.67;;;;;;;14.05;70.97;99063.51;1721554;81;21627;-69
2021/09/04 00:19:52;;;;;;;8.73;4.62;;;;;;;14.06;71.04;99062.91;1686871;83;21615;-69
2021/09/04 00:22:19;;;;;;;9.93;4.58;;;;;;;14.06;71.24;99063.72;1715586;83;21085;-69
2021/09/04 00:24:47;;;;;;;9.65;5.75;;;;;;;14.07;71.44;99063.15;1715672;83;21551;-70
2021/09/04 00:27:16;;;;;;;7.92;5.67;;;;;;;14.07;71.66;99056.23;1735969;82;21083;-67
2021/09/04 00:29:45;;;;;;;9.95;6.37;;;;;;;14.06;71.88;99058.18;1744382;82;21440;-68
2021/09/04 00:32:17;;;;;;;8.73;5.45;;;;;;;14.04;72.04;99057.72;1715574;82;21675;-67
2021/09/04 00:34:43;;;;;;;11.60;6.03;;;;;;;14.04;72.16;99063.27;1734231;82;21499;-68
2021/09/04 00:37:13;;;;;;;9.23;6.33;;;;;;;14.06;72.35;99062.91;1715394;83;21039;-69
2021/09/04 00:39:41;;;;;;;11.30;6.00;;;;;;;14.06;72.51;99059.56;1715206;83;21782;-67
2021/09/04 00:42:12;;;;;;;10.23;6.67;;;;;;;14.05;72.63;99057.97;1715590;83;21011;-69
2021/09/04 00:44:39;;;;;;;8.63;5.12;;;;;;;14.06;72.74;99058.18;1715591;83;21067;-70
2021/09/04 00:47:10;;;;;;;8.95;4.95;;;;;;;14.06;72.89;99058.18;1713119;82;21499;-67
2021/09/04 00:49:37;;;;;;;8.73;4.62;;;;;;;14.07;73.03;99060.38;1685676;83;21594;-68
2021/09/04 00:52:08;;;;;;;7.92;4.25;;;;;;;14.06;73.22;99057.37;1715376;83;21489;-69
2021/09/04 00:54:35;;;;;;;7.80;4.92;;;;;;;14.06;73.50;99062.33;1716771;82;21591;-69
2021/09/04 00:57:01;;;;;;;8.78;5.05;;;;;;;14.06;73.81;99062.91;1715178;83;21499;-67
2021/09/04 00:59:29;;;;;;;6.70;4.30;;;;;;;14.02;74.16;99062.02;1715788;83;21506;-67
2021/09/04 01:02:01;;;;;;;6.58;4.30;;;;;;;13.98;74.57;99060.53;1695173;82;21023;-68
2021/09/04 01:04:27;;;;;;;8.45;4.80;;;;;;;13.98;74.75;99056.38;1741719;82;21031;-68
2021/09/04 01:06:57;;;;;;;7.45;4.20;;;;;;;13.97;74.81;99052.80;1715063;83;21023;-67
2021/09/04 01:09:25;;;;;;;8.75;4.58;;;;;;;13.98;74.85;99060.53;1715289;83;21516;-66
2021/09/04 01:11:52;;;;;;;6.53;4.20;;;;;;;13.98;74.85;99059.16;1722710;82;21070;-67
2021/09/04 01:14:20;;;;;;;6.42;4.42;;;;;;;13.99;74.83;99060.75;1715401;82;21026;-67
2021/09/04 01:16:49;;;;;;;11.25;4.95;;;;;;;13.99;74.85;99062.14;1715917;82;21047;-68
2021/09/04 01:19:18;;;;;;;7.67;5.15;;;;;;;13.98;74.90;99057.77;1715604;82;21606;-67
2021/09/04 01:21:46;;;;;;;9.13;4.70;;;;;;;13.99;74.90;99056.59;1742713;82;21055;-68
2021/09/04 01:24:14;;;;;;;7.72;4.70;;;;;;;14.00;74.91;99055.45;1715831;82;21016;-66
2021/09/04 01:26:45;;;;;;;10.23;5.05;;;;;;;14.00;74.91;99054.86;1745350;82;21499;-67
2021/09/04 01:29:14;;;;;;;10.43;4.78;;;;;;;14.00;74.94;99060.39;1716850;82;21067;-71
2021/09/04 01:31:40;;;;;;;5.95;4.03;;;;;;;13.95;75.04;99061.25;1739954;81;21015;-67
2021/09/04 01:34:07;;;;;;;9.95;4.83;;;;;;;13.91;75.27;99061.72;1715191;83;21000;-68
2021/09/04 01:36:37;;;;;;;8.08;4.75;;;;;;;13.90;75.43;99068.43;1715607;83;21046;-67
2021/09/04 01:39:08;;;;;;;9.90;5.00;;;;;;;13.90;75.52;99072.58;1715552;83;21018;-67
2021/09/04 01:41:37;;;;;;;9.45;4.47;;;;;;;13.91;75.49;99074.19;1714552;82;21107;-67
2021/09/04 01:44:07;;;;;;;9.35;5.28;;;;;;;13.90;75.50;99080.32;1744904;82;21055;-67
2021/09/04 01:46:34;;;;;;;13.90;5.35;;;;;;;13.89;75.49;99078.69;1739195;81;21118;-68
2021/09/04 01:49:04;;;;;;;13.48;5.20;;;;;;;13.85;75.55;99070.28;1734465;82;21060;-67
2021/09/04 01:51:32;;;;;;;9.28;4.50;;;;;;;13.79;75.66;99066.17;1712022;82;21004;-68
2021/09/04 01:53:58;;;;;;;11.15;5.78;;;;;;;13.71;75.70;99069.89;1705146;84;21556;-67
2021/09/04 01:56:26;;;;;;;9.23;5.12;;;;;;;13.62;75.85;99075.58;1706712;82;21008;-67
2021/09/04 01:58:55;;;;;;;9.10;4.58;;;;;;;13.50;76.18;99075.01;1711732;82;21120;-67
2021/09/04 02:01:22;;;;;;;9.40;5.92;;;;;;;13.44;76.51;99076.42;1708062;82;21040;-68
2021/09/04 02:03:50;;;;;;;11.10;5.95;;;;;;;13.40;76.75;99072.16;1704794;82;21099;-68
2021/09/04 02:06:18;;;;;;;10.13;5.83;;;;;;;13.36;76.90;99073.44;1704544;82;21004;-68
2021/09/04 02:08:47;;;;;;;7.70;4.90;;;;;;;13.32;77.12;99074.49;1734769;82;21548;-67
2021/09/04 02:11:15;;;;;;;10.35;5.00;;;;;;;13.25;77.34;99071.75;1734980;82;21059;-68
2021/09/04 02:13:45;;;;;;;9.53;5.20;;;;;;;13.22;77.61;99081.31;1734681;82;21038;-68
2021/09/04 02:16:12;;;;;;;9.70;5.03;;;;;;;13.15;78.02;99078.55;1733715;82;21008;-68
2021/09/04 02:18:40;;;;;;;8.83;4.33;;;;;;;13.10;78.28;99078.78;1685791;84;21493;-68
2021/09/04 02:21:08;;;;;;;13.08;4.47;;;;;;;13.05;78.69;99079.02;1705708;84;20960;-69
2021/09/04 02:23:41;;;;;;;8.03;5.45;;;;;;;13.05;78.85;99080.40;1705666;84;21160;-68
2021/09/04 02:26:08;;;;;;;8.05;5.00;;;;;;;13.01;78.97;99081.70;1686091;82;21576;-67
2021/09/04 02:28:37;;;;;;;8.48;5.92;;;;;;;12.97;79.25;99081.33;1685482;84;21114;-67
2021/09/04 02:31:04;;;;;;;10.78;5.87;;;;;;;12.91;79.57;99090.45;1705522;83;21089;-67
2021/09/04 02:33:31;;;;;;;10.65;5.92;;;;;;;12.88;79.76;99087.80;1704232;84;21039;-70
2021/09/04 02:36:01;;;;;;;12.13;5.87;;;;;;;12.90;80.09;99090.21;1724260;82;21055;-67
2021/09/04 02:38:31;;;;;;;12.33;7.87;;;;;;;12.95;80.18;99090.58;1733739;82;20996;-67
2021/09/04 02:40:59;;;;;;;13.83;7.80;;;;;;;13.00;80.25;99099.42;1734531;82;21047;-68
2021/09/04 02:43:27;;;;;;;13.68;8.15;;;;;;;13.00;80.32;99094.46;1734110;82;21182;-69
2021/09/04 02:45:53;;;;;;;13.40;7.92;;;;;;;12.98;80.54;99089.88;1720649;82;22871;-67
2021/09/04 02:48:20;;;;;;;14.00;7.70;;;;;;;13.00;80.69;99085.59;1722497;83;21542;-70
2021/09/04 02:50:48;;;;;;;19.90;10.82;;;;;;;13.04;80.63;99091.24;1722028;83;21042;-67
2021/09/04 02:53:18;;;;;;;14.47;9.40;;;;;;;13.05;80.71;99079.62;1667036;84;21583;-69
2021/09/04 02:55:46;;;;;;;18.17;9.33;;;;;;;13.05;80.71;99070.72;1665921;85;21327;-68
2021/09/04 02:58:18;;;;;;;17.17;9.48;;;;;;;13.06;80.65;99075.69;1656924;86;21492;-68
2021/09/04 03:00:47;;;;;;;21.93;9.65;;;;;;;13.06;80.71;99070.97;1637788;86;21022;-68
2021/09/04 03:03:20;;;;;;;15.68;9.05;;;;;;;13.05;80.72;99077.63;1657988;85;21039;-67
2021/09/04 03:05:50;;;;;;;16.48;9.23;;;;;;;13.07;80.72;99078.10;1649066;84;21010;-69
2021/09/04 03:08:19;;;;;;;13.30;9.23;;;;;;;13.09;80.68;99078.56;1684725;85;21578;-68
2021/09/04 03:10:50;;;;;;;12.90;7.67;;;;;;;13.08;80.51;99083.06;1694253;84;21011;-66
2021/09/04 03:13:18;;;;;;;16.50;8.58;;;;;;;13.01;80.50;99082.27;1683759;85;21103;-67
2021/09/04 03:15:46;;;;;;;12.00;7.53;;;;;;;12.97;80.58;99083.53;1693661;84;21007;-67
2021/09/04 03:18:13;;;;;;;13.75;8.00;;;;;;;13.00;80.50;99086.16;1683898;85;21075;-68
2021/09/04 03:20:41;;;;;;;14.70;7.85;;;;;;;13.03;80.38;99094.58;1694397;84;21555;-66
2021/09/04 03:23:08;;;;;;;14.75;9.13;;;;;;;13.07;80.28;99109.91;1680895;85;21531;-68
2021/09/04 03:25:39;;;;;;;18.52;11.70;;;;;;;13.11;80.13;99121.08;1694273;84;21383;-67
2021/09/04 03:28:05;;;;;;;19.50;9.60;;;;;;;13.12;79.88;99131.80;1684359;85;21507;-66
2021/09/04 03:30:33;;;;;;;12.60;8.73;;;;;;;13.13;79.45;99138.96;1689432;84;21488;-70
2021/09/04 03:32:59;;;;;;;13.28;7.55;;;;;;;13.12;79.19;99141.48;1635231;86;21976;-68
2021/09/04 03:35:30;;;;;;;17.85;8.03;;;;;;;13.08;79.18;99147.48;1666259;86;21537;-68
2021/09/04 03:38:00;;;;;;;11.12;7.10;;;;;;;13.07;79.15;99151.39;1656816;86;21027;-66
2021/09/04 03:40:28;;;;;;;13.50;6.03;;;;;;;13.07;79.12;99150.00;1668109;84;21744;-67
2021/09/04 03:42:57;;;;;;;9.58;5.62;;;;;;;13.09;79.28;99152.42;1656564;86;21036;-69
2021/09/04 03:45:25;;;;;;;13.38;5.67;;;;;;;13.06;79.40;99160.84;1666911;84;21086;-66
2021/09/04 03:47:53;;;;;;;8.28;5.20;;;;;;;12.97;79.73;99166.48;1651815;86;20987;-68
2021/09/04 03:50:20;;;;;;;11.33;5.53;;;;;;;12.91;80.07;99166.49;1649517;85;21091;-68
2021/09/04 03:52:52;;;;;;;9.63;4.40;;;;;;;12.93;80.35;99170.30;1631403;86;21051;-68
2021/09/04 03:55:18;;;;;;;11.20;4.78;;;;;;;12.94;80.46;99163.60;1628921;87;20999;-69
2021/09/04 03:57:47;;;;;;;15.18;4.87;;;;;;;12.90;80.64;99168.45;1630619;86;21270;-70
2021/09/04 04:00:17;;;;;;;11.15;5.08;;;;;;;12.93;80.81;99173.84;1631636;85;21626;-67
2021/09/04 04:02:45;;;;;;;9.55;4.62;;;;;;;12.96;80.97;99184.81;1653160;85;21038;-66
2021/09/04 04:05:13;;;;;;;6.10;3.98;;;;;;;12.99;81.20;99182.73;1649482;85;21083;-68
2021/09/04 04:07:41;;;;;;;8.78;4.28;;;;;;;13.03;81.20;99185.05;1660695;85;21023;-67
2021/09/04 04:10:10;;;;;;;7.00;3.33;;;;;;;13.02;81.27;99191.72;1675780;85;21134;-66
2021/09/04 04:12:40;;;;;;;5.20;3.42;;;;;;;13.02;81.45;99198.63;1689218;84;21033;-67
2021/09/04 04:15:10;;;;;;;3.92;2.98;;;;;;;12.97;81.25;99200.23;1707562;84;21040;-67
2021/09/04 04:17:37;;;;;;;4.37;2.92;;;;;;;12.95;81.49;99199.80;1652021;84;21114;-68
2021/09/04 04:20:07;;;;;;;6.05;3.05;;;;;;;12.98;81.43;99206.02;1649478;86;21023;-67
2021/09/04 04:22:36;;;;;;;4.87;2.77;;;;;;;13.00;81.49;99211.98;1653225;85;22137;-67
2021/09/04 04:25:08;;;;;;;3.95;2.75;;;;;;;12.98;81.09;99217.08;1649384;87;21027;-68
2021/09/04 04:27:34;;;;;;;5.15;2.95;;;;;;;12.94;81.10;99214.75;1668284;85;21050;-67
2021/09/04 04:30:07;;;;;;;6.55;3.00;;;;;;;12.89;81.21;99224.91;1648954;86;21032;-68
2021/09/04 04:32:35;;;;;;;3.08;1.92;;;;;;;12.88;81.20;99221.89;1666335;85;21048;-67
2021/09/04 04:35:03;;;;;;;4.47;2.58;;;;;;;12.86;81.00;99226.16;1655576;85;21530;-67
2021/09/04 04:37:32;;;;;;;5.47;2.55;;;;;;;12.84;81.11;99230.66;1678993;85;21486;-67
2021/09/04 04:39:58;;;;;;;6.17;2.80;;;;;;;12.89;80.92;99241.50;1686165;84;21008;-68
2021/09/04 04:42:30;;;;;;;3.80;2.55;;;;;;;12.94;80.88;99246.55;1697257;84;21048;-67
2021/09/04 04:45:00;;;;;;;6.47;3.02;;;;;;;12.96;80.35;99247.84;1707524;84;21588;-68
2021/09/04 04:47:28;;;;;;;16.35;8.13;;;;;;;12.92;79.60;99243.32;1704490;83;21123;-67
2021/09/04 04:49:59;;;;;;;15.35;8.35;;;;;;;12.91;79.08;99254.97;1690393;83;21080;-67
2021/09/04 04:52:26;;;;;;;7.50;3.85;;;;;;;12.92;78.67;99253.00;1664590;85;21058;-67
2021/09/04 04:54:58;;;;;;;6.37;2.87;;;;;;;12.86;77.63;99251.83;1732317;82;21102;-67
2021/09/04 04:57:28;;;;;;;6.72;2.47;;;;;;;12.85;77.24;99259.09;1693644;82;21405;-65
2021/09/04 04:59:55;;;;;;;3.45;1.87;;;;;;;12.85;76.69;99268.77;1722833;82;21062;-67
2021/09/04 05:02:24;;;;;;;4.12;2.30;;;;;;;12.81;75.97;99267.25;1747912;80;21050;-67
2021/09/04 05:04:50;;;;;;;3.20;1.45;;;;;;;12.79;75.67;99265.43;1733897;80;21106;-66
2021/09/04 05:07:18;;;;;;;3.02;2.27;;;;;;;12.76;75.45;99273.03;1759075;80;21042;-67
2021/09/04 05:09:46;;;;;;;4.35;2.02;;;;;;;12.74;75.76;99272.55;1705921;82;21538;-66
2021/09/04 05:12:13;;;;;;;6.78;1.92;;;;;;;12.73;75.91;99277.27;1702682;83;21019;-67
2021/09/04 05:14:44;;;;;;;6.22;1.70;;;;;;;12.69;75.85;99281.06;1724059;82;21051;-66
2021/09/04 05:17:14;;;;;;;3.95;2.17;;;;;;;12.65;76.54;99277.59;1732492;82;21550;-66
2021/09/04 05:19:43;;;;;;;5.60;2.55;;;;;;;12.71;76.84;99276.00;1729011;82;21024;-67
2021/09/04 05:22:14;;;;;;;4.12;1.70;;;;;;;12.73;76.39;99283.36;1732032;82;21074;-67
2021/09/04 05:24:41;;;;;;;2.87;1.62;;;;;;;12.73;74.92;99288.89;1729330;80;21008;-69
2021/09/04 05:27:10;;;;;;;4.83;1.40;;;;;;;12.73;73.93;99286.94;1747862;80;21479;-70
2021/09/04 05:29:38;;;;;;;2.12;1.47;;;;;;;12.75;74.15;99292.13;1715395;80;21091;-70
2021/09/04 05:32:06;;;;;;;5.17;2.15;;;;;;;12.77;73.94;99301.71;1738288;80;21093;-68
2021/09/04 05:34:32;;;;;;;2.95;1.15;;;;;;;12.86;73.72;99296.06;1682915;82;21611;-67
2021/09/04 05:37:00;;;;;;;2.65;1.70;;;;;;;12.85;72.00;99300.56;1731634;82;21038;-69
2021/09/04 05:39:30;;;;;;;2.27;1.72;;;;;;;12.87;72.33;99305.18;1730619;82;21078;-68
2021/09/04 05:41:56;;;;;;;2.75;1.55;;;;;;;12.81;71.84;99310.11;1728568;82;21062;-68
2021/09/04 05:44:23;;;;;;;6.92;1.47;;;;;;;12.84;72.18;99314.16;1740397;80;21059;-68
2021/09/04 05:46:53;;;;;;;3.08;1.82;;;;;;;12.80;71.96;99311.83;1731420;80;21090;-67
2021/09/04 05:49:21;;;;;;;2.85;1.65;;;;;;;12.74;72.24;99312.04;1735854;81;21121;-67
2021/09/04 05:51:48;;;;;;;3.40;1.40;;;;;;;12.79;72.90;99308.28;1730422;80;21006;-67
2021/09/04 05:54:14;;;;;;;3.47;1.95;;;;;;;12.89;73.02;99317.53;1762368;80;21113;-68
2021/09/04 05:56:43;;;;;;;3.95;2.02;;;;;;;12.87;72.45;99332.27;1740999;81;21011;-67
2021/09/04 05:59:13;;;;;;;3.72;1.70;;;;;;;12.75;72.45;99333.02;1747929;81;21023;-64
2021/09/04 06:01:44;;;;;;;3.90;1.60;;;;;;;12.74;72.68;99338.30;1740444;80;21552;-66
2021/09/04 06:04:13;;;;;;;2.37;1.67;;;;;;;12.70;72.75;99333.80;1723538;83;21043;-66
2021/09/04 06:06:41;;;;;;;3.70;1.85;;;;;;;12.68;73.49;99341.05;1734943;80;21065;-68
2021/09/04 06:09:09;;;;;;;2.40;1.52;;;;;;;12.73;73.30;99338.08;1723931;81;21548;-67
2021/09/04 06:11:35;;;;;;;2.70;1.72;;;;;;;12.73;73.60;99341.41;1722296;83;21047;-67
2021/09/04 06:14:03;;;;;;;3.10;1.67;;;;;;;12.78;74.08;99342.59;1722378;83;21554;-67
2021/09/04 06:16:31;;;;;;;3.05;1.55;;;;;;;12.80;73.67;99342.24;1723071;83;21011;-67
2021/09/04 06:19:01;;;;;;;7.30;1.70;;;;;;;12.74;73.67;99343.05;1723235;83;21058;-68
2021/09/04 06:21:29;;;;;;;2.55;1.52;;;;;;;12.76;74.16;99345.69;1723062;83;21011;-66
2021/09/04 06:23:57;;;;;;;2.50;1.67;;;;;;;12.78;73.82;99344.78;1724205;81;21038;-68
2021/09/04 06:26:23;;;;;;;3.95;1.62;;;;;;;12.84;74.21;99341.81;1725592;81;21527;-69
2021/09/04 06:28:49;;;;;;;5.00;1.55;;;;;;;12.92;73.85;99349.77;1752788;81;21475;-67
2021/09/04 06:31:21;;;;;;;3.87;1.45;;;;;;;12.92;73.42;99355.30;1752905;81;20991;-66
2021/09/04 06:33:47;;;;;;;6.67;1.90;;;;;;;12.94;73.77;99354.40;1753133;81;21034;-67
2021/09/04 06:36:16;;;;;;;1.80;1.45;;;;;;;13.00;73.18;99357.99;1752752;81;21089;-67
2021/09/04 06:38:45;;;;;;;4.03;1.67;;;;;;;13.05;73.26;99361.11;1725602;81;21012;-68
2021/09/04 06:41:13;;;;;;;3.65;1.82;;;;;;;13.21;73.59;99366.00;1752912;81;21519;-66
2021/09/04 06:43:41;;;;;;;3.77;2.25;;;;;;;13.39;73.39;99365.25;1753223;81;21090;-67
2021/09/04 06:46:07;;;;;;;4.15;1.50;;;;;;;13.55;72.00;99374.28;1753113;81;21037;-67
2021/09/04 06:48:34;;;;;;;5.12;1.45;;;;;;;13.60;70.03;99373.48;1752530;80;21060;-68
2021/09/04 06:51:04;;;;;;;13.58;2.08;;;;;;;13.64;70.04;99377.77;1739684;81;21988;-68
2021/09/04 06:53:31;;;;;;;4.62;1.85;;;;;;;13.69;69.91;99375.34;1737869;81;21083;-68
2021/09/04 06:55:58;;;;;;;2.62;1.50;;;;;;;13.79;70.00;99381.81;1743487;81;21075;-67
2021/09/04 06:58:25;;;;;;;2.27;1.40;;;;;;;13.87;68.95;99385.61;1746944;81;21063;-66
2021/09/04 07:00:57;;;;;;;5.45;1.65;;;;;;;13.92;69.31;99388.75;1729924;81;20988;-66
2021/09/04 07:03:23;;;;;;;5.12;1.52;;;;;;;13.92;68.16;99397.84;1743424;81;21519;-68
2021/09/04 07:05:54;;;;;;;5.15;1.95;;;;;;;13.85;66.33;99405.34;1745395;81;20998;-66
2021/09/04 07:08:21;;;;;;;2.98;1.30;;;;;;;13.77;66.98;99404.88;1723185;81;21047;-68
2021/09/04 07:10:50;;;;;;;3.42;1.37;;;;;;;13.86;67.22;99406.98;1744446;81;21083;-66
2021/09/04 07:13:19;;;;;;;1.55;1.00;;;;;;;14.02;67.41;99405.48;1741824;81;21063;-67
2021/09/04 07:15:46;;;;;;;3.55;1.00;;;;;;;14.20;66.02;99404.08;1751132;80;21281;-68
2021/09/04 07:18:14;;;;;;;2.05;1.05;;;;;;;14.31;63.54;99405.00;1742400;81;20983;-67
2021/09/04 07:20:42;;;;;;;2.35;1.20;;;;;;;14.30;62.07;99411.11;1751070;81;21094;-68
2021/09/04 07:23:08;;;;;;;2.02;1.10;;;;;;;14.29;61.61;99401.20;1747996;80;21460;-67
2021/09/04 07:25:35;;;;;;;1.57;1.25;;;;;;;14.31;61.27;99413.31;1749105;81;21039;-66
2021/09/04 07:28:02;;;;;;;4.72;1.20;;;;;;;14.30;61.65;99416.66;1749423;80;21044;-66
2021/09/04 07:30:28;;;;;;;3.90;1.07;;;;;;;14.32;60.83;99419.89;1702054;81;21540;-67
2021/09/04 07:32:55;;;;;;;1.77;1.10;;;;;;;14.31;61.45;99416.08;1724766;82;21101;-67
2021/09/04 07:35:24;;;;;;;3.37;0.90;;;;;;;14.28;60.89;99426.48;1729195;81;21423;-67
2021/09/04 07:37:50;;;;;;;3.60;1.12;;;;;;;14.28;61.64;99426.48;1740819;81;21024;-66
2021/09/04 07:40:17;;;;;;;2.75;1.00;;;;;;;14.30;61.08;99429.13;1754798;81;21469;-66
2021/09/04 07:42:45;;;;;;;5.03;1.07;;;;;;;14.35;60.63;99422.53;1735029;81;21064;-68
2021/09/04 07:45:11;;;;;;;1.50;1.20;;;;;;;14.45;60.44;99422.66;1728503;82;21108;-67
2021/09/04 07:47:38;;;;;;;1.12;0.70;;;;;;;14.49;59.20;99418.02;1731959;81;21061;-67
2021/09/04 07:50:06;;;;;;;2.25;1.25;;;;;;;14.52;60.52;99411.77;1733702;81;21112;-69
2021/09/04 07:52:33;;;;;;;2.55;1.55;;;;;;;14.66;60.83;99421.67;1725560;81;21934;-68
2021/09/04 07:55:01;;;;;;;1.32;1.02;;;;;;;14.84;60.43;99427.20;1754055;81;20985;-68
2021/09/04 07:57:28;;;;;;;2.65;1.60;;;;;;;14.98;60.56;99429.37;1735255;81;21123;-69
2021/09/04 07:59:56;;;;;;;2.22;1.10;;;;;;;15.14;60.20;99434.38;1748491;80;21073;-66
2021/09/04 08:02:23;;;;;;;2.42;1.17;;;;;;;15.22;58.92;99443.70;1744220;81;21130;-69
2021/09/04 08:04:51;;;;;;;4.85;1.30;;;;;;;15.26;59.73;99431.31;1753440;81;22083;-67
2021/09/04 08:07:22;;;;;;;2.95;1.32;;;;;;;15.39;60.54;99428.70;1743768;80;21027;-68
2021/09/04 08:09:48;;;;;;;2.75;1.42;;;;;;;15.52;59.82;99431.42;1747969;81;21036;-65
2021/09/04 08:12:16;;;;;;;3.77;1.75;;;;;;;15.61;59.26;99430.66;1737323;81;21079;-68
2021/09/04 08:14:43;;;;;;;9.25;1.45;;;;;;;15.62;57.92;99432.86;1733307;81;21119;-66
2021/09/04 08:17:09;;;;;;;3.17;1.25;;;;;;;15.57;57.80;99432.55;1746128;81;21645;-66
2021/09/04 08:19:37;;;;;;;5.55;2.95;;;;;;;15.60;58.32;99436.00;1747780;81;20980;-67
2021/09/04 08:22:04;;;;;;;8.55;1.70;;;;;;;15.68;59.13;99431.42;1746456;81;21063;-68
2021/09/04 08:24:35;;;;;;;3.42;1.60;;;;;;;15.81;58.59;99424.62;1729181;81;21556;-71
2021/09/04 08:27:03;;;;;;;3.60;1.70;;;;;;;15.92;56.96;99424.91;1748262;81;21365;-68
2021/09/04 08:29:32;;;;;;;4.03;2.00;;;;;;;15.90;57.07;99425.05;1739764;81;21143;-67
2021/09/04 08:31:59;;;;;;;3.20;1.57;;;;;;;15.93;57.77;99423.72;1760949;80;21060;-69
2021/09/04 08:34:25;;;;;;;3.87;1.75;;;;;;;16.06;57.73;99425.88;1713561;82;20986;-66
2021/09/04 08:36:53;;;;;;;1.52;1.15;;;;;;;16.21;55.69;99427.59;1728823;81;20998;-68
2021/09/04 08:39:22;;;;;;;2.40;1.45;;;;;;;16.18;54.76;99422.76;1733572;81;21121;-65
2021/09/04 08:41:48;;;;;;;2.05;1.47;;;;;;;16.08;54.56;99423.30;1754178;81;21129;-69
2021/09/04 08:44:16;;;;;;;3.37;1.40;;;;;;;16.10;56.06;99424.57;1732236;81;21490;-68
2021/09/04 08:46:43;;;;;;;2.98;1.22;;;;;;;16.17;55.08;99425.33;1729678;81;21088;-69
2021/09/04 08:49:10;;;;;;;3.12;1.15;;;;;;;15.97;52.66;99424.42;1711865;82;21023;-68
2021/09/04 08:51:36;;;;;;;2.42;1.15;;;;;;;15.87;53.13;99425.74;1749297;81;21083;-68
2021/09/04 08:54:04;;;;;;;4.20;1.10;;;;;;;15.91;53.15;99415.54;1742558;81;21511;-68
2021/09/04 08:56:32;;;;;;;5.30;1.05;;;;;;;16.07;54.66;99419.70;1724326;81;20989;-68
2021/09/04 08:58:59;;;;;;;1.92;0.93;;;;;;;16.19;52.18;99424.36;1738634;81;21064;-67
2021/09/04 09:01:28;;;;;;;2.37;1.10;;;;;;;16.06;51.50;99427.84;1729397;81;21627;-69
2021/09/04 09:03:58;;;;;;;1.57;1.12;;;;;;;15.81;51.87;99427.39;1728429;81;21400;-67
2021/09/04 09:06:29;;;;;;;3.90;0.90;;;;;;;15.65;53.20;99433.53;1759974;81;21461;-66
2021/09/04 09:08:55;;;;;;;2.47;0.98;;;;;;;15.53;52.71;99432.45;1739086;81;21068;-70
2021/09/04 09:11:25;;;;;;;1.85;0.80;;;;;;;15.55;53.07;99432.91;1744363;80;21087;-66
2021/09/04 09:13:55;;;;;;;5.70;0.85;;;;;;;15.66;52.82;99435.16;1724017;82;21104;-69
2021/09/04 09:16:23;;;;;;;1.55;0.85;;;;;;;15.84;52.61;99434.80;1732495;81;21023;-66
2021/09/04 09:18:57;;;;;;;1.32;1.22;;;;;;;16.02;53.00;99442.24;1739356;81;21024;-70
2021/09/04 09:21:27;;;;;;;2.05;0.98;;;;;;;16.18;52.48;99433.30;1747339;81;21039;-68
2021/09/04 09:24:16;;;;;;;1.45;1.02;;;;;;;16.36;51.69;99444.63;1748575;81;21032;-66
2021/09/04 09:26:50;;;;;;;3.02;1.10;;;;;;;16.36;47.56;99449.58;1742987;81;21563;-70
2021/09/04 09:29:24;;;;;;;6.62;1.20;;;;;;;16.21;48.16;99439.28;1739916;80;20977;-68
2021/09/04 09:32:12;;;;;;;1.52;0.80;;;;;;;16.15;47.94;99445.72;1746372;81;21140;-67
2021/09/04 09:34:45;;;;;;;4.28;1.32;;;;;;;15.98;48.51;99445.47;1731117;81;21546;-67
2021/09/04 09:37:13;;;;;;;2.77;1.15;;;;;;;15.85;49.20;99441.38;1719252;81;21555;-67
2021/09/04 09:39:44;;;;;;;2.47;0.98;;;;;;;15.80;48.21;99449.98;1722179;81;20993;-67
2021/09/04 09:42:13;;;;;;;2.15;1.10;;;;;;;15.74;49.59;99449.45;1718531;81;21070;-67
2021/09/04 09:44:41;;;;;;;3.62;1.12;;;;;;;15.83;48.14;99454.84;1723450;81;20954;-66
2021/09/04 09:47:12;;;;;;;1.57;1.17;;;;;;;15.95;48.09;99455.31;1729347;81;21061;-67
2021/09/04 09:49:44;;;;;;;1.47;0.80;;;;;;;16.08;49.63;99455.26;1757373;80;21024;-70
2021/09/04 09:52:17;;;;;;;2.35;0.95;;;;;;;16.24;49.29;99465.78;1766107;80;21028;-67
2021/09/04 09:54:48;;;;;;;5.30;1.27;;;;;;;16.20;47.17;99460.73;1760381;80;21047;-68
2021/09/04 09:57:17;;;;;;;3.33;1.25;;;;;;;16.12;46.96;99463.12;1755204;80;21449;-69
2021/09/04 09:59:45;;;;;;;1.95;1.02;;;;;;;16.05;47.24;99463.14;1747404;80;21063;-69
2021/09/04 10:02:14;;;;;;;1.60;0.93;;;;;;;16.02;47.01;99461.69;1751718;80;21015;-67
2021/09/04 10:04:40;;;;;;;2.70;1.37;;;;;;;16.05;48.60;99459.58;1757277;80;21057;-70
2021/09/04 10:07:11;;;;;;;4.25;1.35;;;;;;;16.21;48.49;99460.94;1733781;82;21523;-67
2021/09/04 10:09:40;;;;;;;2.60;0.93;;;;;;;16.38;49.22;99458.94;1713344;83;21707;-67
2021/09/04 10:12:10;;;;;;;1.35;0.98;;;;;;;16.52;45.50;99459.29;1718981;82;21070;-69
2021/09/04 10:14:40;;;;;;;1.55;0.85;;;;;;;16.53;45.86;99473.41;1717170;82;21023;-66
2021/09/04 10:17:08;;;;;;;1.30;1.07;;;;;;;16.67;46.66;99467.94;1700899;82;21027;-68
2021/09/04 10:19:39;;;;;;;1.70;1.10;;;;;;;16.93;46.43;99462.35;1679359;82;21136;-66
2021/09/04 10:22:09;;;;;;;3.05;1.35;;;;;;;17.19;46.63;99457.33;1717769;82;21019;-67
2021/09/04 10:24:52;;;;;;;1.55;0.80;;;;;;;17.40;46.45;99456.94;1714451;82;21365;-65
2021/09/04 10:27:31;;;;;;;3.25;2.00;;;;;;;17.59;46.15;99458.08;1697594;82;21023;-66
2021/09/04 10:29:58;;;;;;;1.32;1.17;;;;;;;17.62;45.52;99457.36;1684761;82;21039;-66
2021/09/04 10:32:25;;;;;;;2.35;1.00;;;;;;;17.65;44.95;99464.97;1706453;82;21015;-71
2021/09/04 10:35:06;;;;;;;5.85;1.20;;;;;;;17.68;46.14;99456.45;1665447;82;21134;-67
2021/09/04 10:37:36;;;;;;;1.62;1.00;;;;;;;17.62;42.85;99465.72;1700369;82;21137;-69
2021/09/04 10:40:10;;;;;;;3.60;1.10;;;;;;;17.28;41.91;99469.84;1670736;84;21066;-67
2021/09/04 10:42:41;;;;;;;4.72;1.50;;;;;;;16.95;43.36;99479.49;1761916;80;20937;-68
2021/09/04 10:45:16;;;;;;;5.25;1.17;;;;;;;16.68;43.46;99476.53;1722533;82;21574;-66
2021/09/04 10:47:52;;;;;;;3.70;1.10;;;;;;;16.60;45.46;99483.10;1696190;83;21251;-68
2021/09/04 10:50:26;;;;;;;4.20;1.17;;;;;;;16.67;43.90;99477.68;1701952;83;20940;-67
2021/09/04 10:53:07;;;;;;;1.65;1.10;;;;;;;16.70;44.23;99478.34;1689814;83;21079;-66
2021/09/04 10:55:41;;;;;;;2.27;1.22;;;;;;;16.70;44.28;99481.13;1689407;83;21160;-69
2021/09/04 10:58:15;;;;;;;1.62;0.93;;;;;;;16.66;43.34;99476.08;1689515;83;21103;-66
2021/09/04 11:00:50;;;;;;;3.62;0.70;;;;;;;16.46;43.05;99484.38;1688478;83;22160;-67
2021/09/04 11:03:21;;;;;;;3.17;1.10;;;;;;;16.46;44.48;99480.21;1713597;83;21016;-67
2021/09/04 11:05:55;;;;;;;2.12;1.32;;;;;;;16.60;44.31;99480.32;1721314;82;21028;-68
2021/09/04 11:08:38;;;;;;;3.40;0.95;;;;;;;16.76;44.43;99484.44;1656785;83;21063;-67
2021/09/04 11:11:28;;;;;;;4.05;1.00;;;;;;;16.97;44.72;99484.12;1687573;83;21051;-68
2021/09/04 11:14:02;;;;;;;1.47;1.00;;;;;;;17.07;43.97;99487.48;1701247;83;21237;-66
2021/09/04 11:16:34;;;;;;;3.17;1.35;;;;;;;17.10;44.16;99485.38;1702739;83;20973;-69
2021/09/04 11:19:06;;;;;;;1.22;1.12;;;;;;;17.24;45.01;99484.88;1707557;83;21055;-68
2021/09/04 11:22:03;;;;;;;1.40;0.90;;;;;;;17.33;44.85;99481.27;1693225;83;21076;-69
2021/09/04 11:24:37;;;;;;;6.17;1.10;;;;;;;17.25;43.54;99485.90;1693955;83;21089;-70
2021/09/04 11:27:19;;;;;;;4.95;1.25;;;;;;;17.04;42.68;99487.64;1671024;85;21096;-69
2021/09/04 11:29:51;;;;;;;9.08;1.10;;;;;;;16.80;43.07;99496.46;1717937;83;21074;-68
2021/09/04 11:32:29;;;;;;;1.72;0.62;;;;;;;16.77;44.10;99487.42;1720381;83;21523;-71
2021/09/04 11:35:01;;;;;;;1.90;1.10;;;;;;;16.76;43.95;99492.20;1714002;83;21047;-70
2021/09/04 11:37:34;;;;;;;2.92;1.10;;;;;;;16.64;43.85;99495.09;1703552;83;21527;-68
2021/09/04 11:40:10;;;;;;;;;;;;;;;16.61;44.92;99491.66;1715100;83;21066;-67